createdAt,value
2023-02-14T00:02:18.609Z,72.29
2023-02-14T00:04:50.302Z,72.67
2023-02-14T00:07:20.359Z,72.71
2023-02-14T00:09:48.967Z,72.86
2023-02-14T00:12:17.344Z,72.77
2023-02-14T00:15:03.255Z,72.93
2023-02-14T00:17:31.863Z,72.99
2023-02-14T00:20:00.413Z,72.77
2023-02-14T00:22:30.394Z,73.01
2023-02-14T00:24:58.838Z,73.11
2023-02-14T00:27:27.331Z,72.85
2023-02-14T00:29:58.209Z,72.92
2023-02-14T00:32:26.652Z,72.87
2023-02-14T00:34:55.020Z,72.88
2023-02-14T00:37:23.413Z,72.85
2023-02-14T00:39:53.241Z,72.76
2023-02-14T00:42:21.544Z,73.15
2023-02-14T00:44:49.911Z,73.29
2023-02-14T00:47:18.355Z,72.95
2023-02-14T00:49:46.709Z,72.92
2023-02-14T00:52:15.230Z,73.10
2023-02-14T00:54:43.609Z,73.20
2023-02-14T00:57:13.317Z,73.05
2023-02-14T00:59:41.676Z,72.84
2023-02-14T01:02:10.176Z,72.77
2023-02-14T01:04:38.551Z,73.15
2023-02-14T01:07:06.828Z,73.15
2023-02-14T01:09:35.320Z,73.16
2023-02-14T01:12:03.648Z,73.09
2023-02-14T01:14:33.403Z,73.15
2023-02-14T01:17:01.766Z,73.17
2023-02-14T01:19:30.072Z,73.26
2023-02-14T01:21:58.401Z,73.22
2023-02-14T01:24:26.854Z,73.25
2023-02-14T01:26:55.215Z,73.27
2023-02-14T01:29:23.547Z,73.19
2023-02-14T01:31:54.964Z,72.83
2023-02-14T01:34:23.327Z,72.99
2023-02-14T01:36:51.646Z,73.11
2023-02-14T01:39:19.960Z,72.95
2023-02-14T01:41:49.566Z,72.78
2023-02-14T01:44:55.022Z,73.21
2023-02-14T01:47:26.712Z,73.11
2023-02-14T01:49:58.871Z,72.89
2023-02-14T01:52:31.713Z,73.13
2023-02-14T01:55:03.404Z,73.08
2023-02-14T01:57:37.278Z,73.23
2023-02-14T02:00:26.546Z,73.26
2023-02-14T02:02:57.179Z,73.43
2023-02-14T02:05:25.819Z,73.47
2023-02-14T02:07:57.472Z,73.42
2023-02-14T02:10:26.043Z,73.42
2023-02-14T02:12:56.079Z,73.33
2023-02-14T02:15:27.637Z,73.39
2023-02-14T02:18:04.189Z,73.46
2023-02-14T02:20:52.120Z,73.19
2023-02-14T02:23:48.989Z,73.52
2023-02-14T02:27:04.627Z,73.25
2023-02-14T02:30:14.196Z,72.81
2023-02-14T02:33:20.525Z,73.09
2023-02-14T02:36:04.745Z,73.15
2023-02-14T02:38:54.986Z,72.86
2023-02-14T02:41:35.688Z,72.74
2023-02-14T02:44:18.816Z,73.19
2023-02-14T02:46:54.167Z,73.14
2023-02-14T02:49:50.716Z,73.07
2023-02-14T02:52:45.572Z,72.84
2023-02-14T02:55:21.655Z,73.06
2023-02-14T02:57:51.796Z,73.05
2023-02-14T03:00:22.899Z,73.21
2023-02-14T03:03:11.841Z,73.30
2023-02-14T03:05:41.004Z,73.10
2023-02-14T03:08:10.722Z,73.44
2023-02-14T03:10:40.668Z,73.20
2023-02-14T03:13:39.855Z,73.16
2023-02-14T03:16:33.753Z,73.30
2023-02-14T03:20:04.008Z,73.22
2023-02-14T03:22:44.712Z,73.10
2023-02-14T03:25:25.426Z,73.24
2023-02-14T03:27:58.574Z,73.23
2023-02-14T03:30:40.351Z,73.05
2023-02-14T03:33:16.619Z,73.09
2023-02-14T03:35:53.361Z,73.20
2023-02-14T03:38:26.883Z,73.29
2023-02-14T03:41:00.615Z,73.38
2023-02-14T03:43:33.026Z,73.62
2023-02-14T03:46:07.526Z,73.54
2023-02-14T03:48:38.038Z,73.55
2023-02-14T03:51:10.504Z,73.18
2023-02-14T03:53:44.893Z,73.74
2023-02-14T03:56:18.578Z,73.87
2023-02-14T03:58:51.754Z,73.86
2023-02-14T04:01:25.464Z,73.90
2023-02-14T04:03:56.911Z,73.67
2023-02-14T04:06:25.394Z,73.82
2023-02-14T04:08:53.838Z,73.63
2023-02-14T04:11:35.605Z,73.46
2023-02-14T04:14:04.194Z,73.25
2023-02-14T04:16:53.810Z,73.63
2023-02-14T04:19:24.112Z,73.96
2023-02-14T04:21:53.004Z,73.78
2023-02-14T04:24:21.379Z,74.09
2023-02-14T04:27:09.926Z,74.17
2023-02-14T04:29:39.740Z,73.97
2023-02-14T04:32:10.421Z,73.99
2023-02-14T04:34:39.698Z,73.86
2023-02-14T04:37:08.865Z,73.89
2023-02-14T04:39:37.607Z,73.88
2023-02-14T04:42:07.809Z,73.72
2023-02-14T04:44:38.170Z,73.77
2023-02-14T04:47:07.383Z,73.63
2023-02-14T04:49:36.344Z,73.85
2023-02-14T04:52:05.072Z,73.92
2023-02-14T04:54:34.401Z,73.78
2023-02-14T04:57:02.726Z,73.84
2023-02-14T04:59:32.500Z,73.92
2023-02-14T05:02:00.840Z,74.07
2023-02-14T05:04:29.168Z,73.91
2023-02-14T05:06:57.490Z,73.87
2023-02-14T05:09:25.895Z,73.98
2023-02-14T05:11:54.620Z,73.86
2023-02-14T05:14:23.238Z,73.92
2023-02-14T05:16:53.155Z,73.89
2023-02-14T05:19:21.588Z,74.01
2023-02-14T05:21:49.952Z,73.88
2023-02-14T05:24:18.572Z,73.97
2023-02-14T05:26:46.939Z,73.84
2023-02-14T05:29:15.235Z,73.74
2023-02-14T05:31:43.855Z,73.82
2023-02-14T05:34:13.662Z,73.79
2023-02-14T05:36:42.027Z,73.89
2023-02-14T05:39:10.838Z,73.88
2023-02-14T05:44:06.698Z,73.74
2023-02-14T05:46:35.003Z,73.82
2023-02-14T05:49:03.707Z,73.88
2023-02-14T05:51:33.435Z,74.00
2023-02-14T05:54:01.806Z,74.04
2023-02-14T05:56:30.220Z,74.09
2023-02-14T05:58:58.541Z,74.06
2023-02-14T06:01:26.911Z,74.04
2023-02-14T06:03:55.286Z,73.98
2023-02-14T06:06:23.623Z,73.92
2023-02-14T06:08:53.324Z,73.85
2023-02-14T06:11:21.719Z,74.16
2023-02-14T06:13:50.058Z,74.18
2023-02-14T06:16:18.450Z,74.42
2023-02-14T06:18:46.847Z,74.26
2023-02-14T06:21:15.845Z,74.28
2023-02-14T06:23:44.216Z,74.33
2023-02-14T06:26:13.933Z,74.36
2023-02-14T06:28:42.833Z,74.32
2023-02-14T06:31:17.070Z,74.24
2023-02-14T06:33:45.599Z,74.38
2023-02-14T06:36:14.088Z,74.50
2023-02-14T06:38:42.676Z,74.40
2023-02-14T06:41:15.032Z,74.25
2023-02-14T06:43:43.771Z,74.08
2023-02-14T06:46:12.478Z,74.20
2023-02-14T06:48:40.863Z,74.23
2023-02-14T06:51:09.235Z,74.23
2023-02-14T06:53:37.853Z,74.19
2023-02-14T06:56:06.990Z,74.13
2023-02-14T06:58:36.711Z,74.18
2023-02-14T07:01:05.569Z,74.05
2023-02-14T07:03:34.030Z,74.04
2023-02-14T07:06:02.714Z,73.91
2023-02-14T07:08:31.070Z,74.14
2023-02-14T07:11:00.006Z,74.12
2023-02-14T07:13:28.558Z,74.21
2023-02-14T07:15:58.363Z,74.18
2023-02-14T07:18:26.824Z,73.99
2023-02-14T07:20:55.153Z,74.03
2023-02-14T07:23:23.528Z,73.85
2023-02-14T07:25:51.868Z,73.76
2023-02-14T07:28:20.146Z,73.93
2023-02-14T07:30:48.693Z,73.96
2023-02-14T07:33:18.434Z,74.13
2023-02-14T07:35:46.747Z,74.14
2023-02-14T07:38:15.046Z,74.11
2023-02-14T07:40:43.407Z,74.25
2023-02-14T07:43:12.012Z,74.29
2023-02-14T07:45:40.270Z,74.33
2023-02-14T07:48:08.689Z,74.22
2023-02-14T07:50:38.450Z,74.21
2023-02-14T07:53:08.550Z,74.04
2023-02-14T07:55:36.886Z,73.79
2023-02-14T07:58:05.163Z,73.82
2023-02-14T08:00:33.665Z,73.85
2023-02-14T08:03:02.018Z,73.89
2023-02-14T08:05:31.005Z,73.68
2023-02-14T08:08:00.720Z,73.64
2023-02-14T08:10:29.133Z,73.74
2023-02-14T08:12:59.856Z,73.90
2023-02-14T08:15:47.264Z,73.91
2023-02-14T08:18:17.512Z,74.08
2023-02-14T08:20:46.193Z,74.22
2023-02-14T08:23:16.568Z,73.82
2023-02-14T08:25:44.869Z,73.96
2023-02-14T08:28:14.902Z,73.94
2023-02-14T08:30:44.691Z,73.89
2023-02-14T08:33:13.452Z,73.69
2023-02-14T08:35:41.854Z,73.83
2023-02-14T08:38:10.827Z,73.90
2023-02-14T08:40:41.570Z,73.67
2023-02-14T08:43:10.587Z,73.79
2023-02-14T08:45:39.371Z,73.72
2023-02-14T08:48:09.893Z,73.63
2023-02-14T08:50:38.837Z,73.51
2023-02-14T08:53:09.460Z,73.47
2023-02-14T08:55:38.793Z,73.49
2023-02-14T08:58:09.242Z,73.41
2023-02-14T09:00:37.690Z,73.00
2023-02-14T09:03:06.167Z,73.07
2023-02-14T09:05:34.932Z,73.10
2023-02-14T09:08:03.413Z,73.22
2023-02-14T09:10:32.074Z,73.42
2023-02-14T09:13:00.408Z,73.16
2023-02-14T09:15:30.132Z,72.85
2023-02-14T09:17:58.534Z,72.46
2023-02-14T09:20:27.053Z,72.94
2023-02-14T09:22:56.992Z,72.80
2023-02-14T09:25:25.363Z,73.17
2023-02-14T09:27:53.708Z,73.25
2023-02-14T09:30:22.109Z,73.06
2023-02-14T09:32:54.036Z,73.17
2023-02-14T09:35:22.405Z,73.13
2023-02-14T09:37:50.730Z,73.45
2023-02-14T09:40:20.535Z,72.94
2023-02-14T09:43:01.956Z,73.25
2023-02-14T09:45:34.122Z,73.30
2023-02-14T09:48:08.338Z,73.04
2023-02-14T09:50:41.212Z,73.14
2023-02-14T09:53:20.090Z,72.74
2023-02-14T09:55:53.514Z,72.95
2023-02-14T09:58:27.028Z,72.30
2023-02-14T10:01:03.370Z,73.27
2023-02-14T10:03:49.073Z,72.89
2023-02-14T10:06:34.989Z,72.66
2023-02-14T10:09:13.131Z,72.79
2023-02-14T10:11:44.795Z,73.05
2023-02-14T10:14:17.113Z,73.17
2023-02-14T10:16:50.263Z,72.40
2023-02-14T10:19:24.902Z,72.84
2023-02-14T10:21:56.316Z,72.48
2023-02-14T10:24:28.798Z,72.94
2023-02-14T10:27:03.186Z,72.51
2023-02-14T10:29:31.547Z,72.85
2023-02-14T10:32:02.121Z,72.35
2023-02-14T10:34:42.760Z,72.51
2023-02-14T10:37:29.809Z,72.09
2023-02-14T10:40:10.716Z,72.09
2023-02-14T10:42:51.419Z,71.84
2023-02-14T10:45:27.240Z,72.03
2023-02-14T10:47:59.820Z,71.89
2023-02-14T10:50:38.410Z,71.80
2023-02-14T10:53:20.960Z,71.67
2023-02-14T10:55:57.055Z,71.46
2023-02-14T10:58:28.737Z,71.35
2023-02-14T11:01:02.854Z,71.33
2023-02-14T11:03:31.541Z,71.12
2023-02-14T11:06:01.360Z,70.62
2023-02-14T11:08:34.317Z,70.42
2023-02-14T11:11:11.914Z,70.59
2023-02-14T11:13:41.105Z,70.43
2023-02-14T11:16:11.566Z,69.90
2023-02-14T11:18:41.455Z,70.19
2023-02-14T11:21:13.242Z,69.92
2023-02-14T11:23:43.488Z,70.11
2023-02-14T11:26:21.518Z,69.50
2023-02-14T11:28:53.741Z,69.44
2023-02-14T11:31:31.185Z,68.57
2023-02-14T11:34:01.936Z,68.69
2023-02-14T11:36:39.815Z,68.72
2023-02-14T11:39:24.890Z,68.74
2023-02-14T11:41:55.492Z,68.33
2023-02-14T11:44:26.111Z,68.27
2023-02-14T11:46:56.868Z,67.96
2023-02-14T11:49:33.868Z,67.26
2023-02-14T11:52:11.481Z,67.41
2023-02-14T11:54:42.316Z,67.40
2023-02-14T11:57:15.697Z,66.85
2023-02-14T11:59:46.409Z,66.65
2023-02-14T12:02:31.953Z,66.34
2023-02-14T12:05:04.322Z,66.81
2023-02-14T12:07:37.563Z,66.32
2023-02-14T12:10:19.280Z,66.32
2023-02-14T12:12:53.382Z,66.30
2023-02-14T12:15:29.545Z,65.91
2023-02-14T12:18:10.454Z,65.89
2023-02-14T12:20:43.110Z,65.75
2023-02-14T12:23:19.466Z,65.39
2023-02-14T12:25:55.623Z,65.04
2023-02-14T12:28:30.773Z,64.93
2023-02-14T12:30:59.941Z,64.99
2023-02-14T12:33:28.571Z,64.42
2023-02-14T12:36:10.255Z,63.88
2023-02-14T12:38:52.456Z,64.53
2023-02-14T12:41:41.754Z,64.01
2023-02-14T12:44:17.664Z,64.23
2023-02-14T12:47:09.429Z,63.65
2023-02-14T12:49:53.181Z,63.74
2023-02-14T12:52:38.786Z,63.67
2023-02-14T12:55:33.076Z,63.24
2023-02-14T12:58:07.697Z,63.50
2023-02-14T13:00:45.965Z,63.11
2023-02-14T13:03:33.091Z,63.02
2023-02-14T13:06:08.602Z,62.80
2023-02-14T13:09:03.303Z,62.91
2023-02-14T13:11:43.547Z,63.00
2023-02-14T13:14:22.443Z,62.79
2023-02-14T13:16:56.927Z,62.46
2023-02-14T13:19:36.294Z,62.07
2023-02-14T13:22:07.006Z,61.98
2023-02-14T13:24:40.517Z,61.76
2023-02-14T13:27:15.294Z,61.70
2023-02-14T13:29:48.140Z,61.59
2023-02-14T13:32:20.455Z,61.36
2023-02-14T13:34:49.871Z,61.45
2023-02-14T13:37:21.229Z,61.11
2023-02-14T13:39:55.355Z,60.82
2023-02-14T13:42:55.837Z,60.04
2023-02-14T13:45:57.249Z,59.99
2023-02-14T13:48:27.515Z,60.35
2023-02-14T13:50:58.974Z,60.35
2023-02-14T13:53:36.655Z,60.01
2023-02-14T13:56:07.395Z,59.92
2023-02-14T13:58:37.224Z,60.11
2023-02-14T14:01:31.398Z,59.14
2023-02-14T14:04:01.822Z,59.79
2023-02-14T14:07:09.345Z,58.80
2023-02-14T14:09:57.120Z,58.92
2023-02-14T14:12:45.032Z,58.74
2023-02-14T14:15:19.032Z,59.27
2023-02-14T14:18:29.949Z,58.37
2023-02-14T14:20:58.583Z,59.24
2023-02-14T14:23:33.589Z,58.95
2023-02-14T14:26:03.353Z,59.12
2023-02-14T14:28:33.460Z,58.99
2023-02-14T14:31:03.335Z,58.95
2023-02-14T14:33:34.207Z,58.62
2023-02-14T14:36:07.337Z,58.46
2023-02-14T14:38:47.673Z,57.29
2023-02-14T14:41:16.205Z,57.42
2023-02-14T14:43:44.998Z,56.99
2023-02-14T14:46:15.842Z,56.56
2023-02-14T14:48:47.041Z,56.49
2023-02-14T14:51:23.492Z,56.34
2023-02-14T14:53:55.816Z,56.37
2023-02-14T14:56:26.887Z,56.02
2023-02-14T14:58:55.960Z,56.05
2023-02-14T15:01:37.337Z,55.64
2023-02-14T15:04:13.329Z,56.06
2023-02-14T15:06:42.075Z,56.55
2023-02-14T15:09:15.643Z,56.53
2023-02-14T15:12:04.171Z,57.03
2023-02-14T15:14:38.188Z,57.64
2023-02-14T15:17:15.563Z,57.72
2023-02-14T15:19:48.639Z,57.64
2023-02-14T15:22:21.565Z,57.76
2023-02-14T15:24:50.574Z,57.46
2023-02-14T15:27:21.609Z,57.77
2023-02-14T15:29:58.647Z,57.49
2023-02-14T15:32:31.890Z,57.95
2023-02-14T15:35:03.130Z,57.71
2023-02-14T15:37:34.942Z,57.50
2023-02-14T15:40:06.801Z,58.01
2023-02-14T15:42:41.338Z,57.98
2023-02-14T15:45:22.317Z,57.66
2023-02-14T15:47:55.334Z,58.21
2023-02-14T15:50:27.792Z,58.18
2023-02-14T15:53:01.084Z,58.31
2023-02-14T15:55:30.793Z,57.96
2023-02-14T15:58:02.482Z,58.01
2023-02-14T16:00:32.180Z,58.12
2023-02-14T16:03:06.832Z,58.77
2023-02-14T16:05:35.596Z,59.00
2023-02-14T16:08:05.949Z,58.93
2023-02-14T16:10:36.264Z,59.18
2023-02-14T16:13:08.607Z,59.53
2023-02-14T16:15:42.118Z,59.56
2023-02-14T16:18:33.322Z,59.18
2023-02-14T16:21:13.052Z,59.25
2023-02-14T16:23:41.682Z,59.59
2023-02-14T16:26:10.439Z,59.63
2023-02-14T16:28:38.863Z,60.11
2023-02-14T16:31:11.190Z,60.26
2023-02-14T16:33:41.996Z,60.56
2023-02-14T16:36:20.674Z,60.71
2023-02-14T16:38:50.011Z,60.75
2023-02-14T16:41:20.637Z,60.76
2023-02-14T16:43:50.348Z,61.00
2023-02-14T16:46:21.638Z,61.06
2023-02-14T16:48:52.519Z,61.23
2023-02-14T16:51:24.231Z,61.48
2023-02-14T16:53:53.044Z,61.16
2023-02-14T16:56:24.847Z,61.55
2023-02-14T16:58:53.181Z,61.51
2023-02-14T17:01:21.614Z,61.90
2023-02-14T17:03:51.349Z,61.74
2023-02-14T17:06:23.603Z,62.11
2023-02-14T17:08:54.045Z,61.91
2023-02-14T17:11:24.329Z,62.11
2023-02-14T17:13:54.498Z,61.88
2023-02-14T17:16:23.395Z,62.07
2023-02-14T17:18:53.518Z,62.06
2023-02-14T17:21:24.166Z,62.45
2023-02-14T17:23:52.476Z,62.39
2023-02-14T17:26:20.831Z,62.49
2023-02-14T17:28:49.131Z,62.56
2023-02-14T17:31:18.122Z,62.71
2023-02-14T17:33:46.522Z,62.86
2023-02-14T17:36:16.346Z,63.00
2023-02-14T17:38:45.006Z,63.14
2023-02-14T17:41:14.850Z,62.90
2023-02-14T17:43:43.707Z,63.00
2023-02-14T17:46:14.233Z,63.50
2023-02-14T17:48:45.358Z,63.65
2023-02-14T17:51:14.858Z,63.66
2023-02-14T17:53:44.758Z,63.58
2023-02-14T17:56:17.845Z,63.59
2023-02-14T17:58:47.747Z,63.62
2023-02-14T18:01:18.200Z,63.83
2023-02-14T18:03:47.296Z,63.92
2023-02-14T18:06:16.316Z,64.11
2023-02-14T18:08:49.341Z,63.93
2023-02-14T18:11:19.439Z,64.22
2023-02-14T18:13:48.444Z,64.00
2023-02-14T18:16:18.671Z,64.58
2023-02-14T18:18:47.220Z,64.00
2023-02-14T18:21:18.922Z,64.24
2023-02-14T18:23:48.635Z,64.59
2023-02-14T18:26:18.096Z,64.39
2023-02-14T18:28:46.962Z,64.23
2023-02-14T18:31:18.053Z,64.10
2023-02-14T18:33:47.604Z,64.32
2023-02-14T18:36:18.023Z,64.51
2023-02-14T18:38:49.577Z,64.62
2023-02-14T18:41:19.705Z,64.72
2023-02-14T18:43:49.147Z,64.40
2023-02-14T18:46:19.467Z,64.98
2023-02-14T18:48:47.945Z,64.69
2023-02-14T18:51:19.548Z,64.85
2023-02-14T18:53:52.148Z,64.86
2023-02-14T18:56:24.024Z,64.88
2023-02-14T18:58:56.256Z,64.98
2023-02-14T19:01:28.695Z,64.45
2023-02-14T19:03:59.574Z,64.50
2023-02-14T19:06:29.469Z,64.38
2023-02-14T19:08:59.532Z,64.69
2023-02-14T19:11:31.725Z,64.92
2023-02-14T19:14:02.907Z,64.75
2023-02-14T19:16:33.527Z,65.02
2023-02-14T19:19:02.666Z,65.23
2023-02-14T19:21:33.658Z,65.16
2023-02-14T19:24:06.866Z,65.48
2023-02-14T19:26:40.166Z,64.75
2023-02-14T19:29:10.937Z,64.98
2023-02-14T19:31:41.423Z,65.31
2023-02-14T19:34:17.027Z,65.47
2023-02-14T19:36:45.714Z,65.54
2023-02-14T19:39:16.221Z,65.50
2023-02-14T19:41:44.571Z,65.29
2023-02-14T19:44:14.788Z,65.14
2023-02-14T19:46:43.863Z,65.24
2023-02-14T19:49:15.124Z,65.46
2023-02-14T19:51:43.879Z,65.51
2023-02-14T19:54:13.330Z,65.48
2023-02-14T19:56:45.207Z,66.07
2023-02-14T19:59:19.654Z,66.09
2023-02-14T20:01:49.837Z,65.89
2023-02-14T20:04:20.432Z,65.75
2023-02-14T20:06:49.745Z,66.21
2023-02-14T20:09:18.642Z,66.13
2023-02-14T20:11:50.287Z,66.21
2023-02-14T20:14:19.843Z,66.01
2023-02-14T20:16:49.006Z,66.14
2023-02-14T20:19:19.761Z,66.01
2023-02-14T20:21:49.966Z,66.13
2023-02-14T20:24:21.304Z,66.20
2023-02-14T20:26:52.890Z,66.18
2023-02-14T20:29:22.862Z,66.14
2023-02-14T20:31:52.783Z,66.25
2023-02-14T20:34:22.252Z,66.57
2023-02-14T20:36:53.268Z,66.50
2023-02-14T20:39:23.287Z,66.63
2023-02-14T20:41:54.048Z,66.71
2023-02-14T20:44:22.889Z,66.64
2023-02-14T20:46:54.144Z,66.73
2023-02-14T20:49:24.065Z,66.69
2023-02-14T20:51:53.928Z,67.24
2023-02-14T20:54:24.335Z,66.92
2023-02-14T20:56:54.191Z,67.02
2023-02-14T20:59:26.879Z,66.87
2023-02-14T21:01:55.907Z,66.68
2023-02-14T21:04:24.670Z,66.95
2023-02-14T21:06:57.694Z,66.61
2023-02-14T21:09:26.131Z,67.07
2023-02-14T21:11:55.924Z,66.89
2023-02-14T21:14:24.295Z,66.96
2023-02-14T21:16:52.613Z,66.93
2023-02-14T21:19:20.963Z,66.56
2023-02-14T21:21:49.348Z,66.99
2023-02-14T21:24:18.054Z,66.95
2023-02-14T21:26:46.572Z,66.90
2023-02-14T21:29:16.593Z,67.36
2023-02-14T21:31:45.032Z,66.96
2023-02-14T21:34:16.244Z,67.08
2023-02-14T21:36:44.617Z,67.49
2023-02-14T21:39:13.041Z,67.78
2023-02-14T21:41:41.428Z,67.55
2023-02-14T21:44:10.399Z,67.91
2023-02-14T21:46:41.024Z,68.10
2023-02-14T21:49:27.033Z,68.05
2023-02-14T21:51:55.363Z,68.17
2023-02-14T21:54:23.738Z,68.07
2023-02-14T21:56:52.124Z,68.20
2023-02-14T21:59:20.489Z,67.95
2023-02-14T22:01:50.222Z,68.01
2023-02-14T22:04:18.630Z,67.97
2023-02-14T22:06:47.082Z,68.09
2023-02-14T22:09:17.455Z,68.24
2023-02-14T22:11:47.569Z,68.24
2023-02-14T22:14:16.444Z,68.39
2023-02-14T22:16:44.823Z,67.96
2023-02-14T22:19:17.422Z,68.00
2023-02-14T22:21:45.854Z,68.08
2023-02-14T22:24:14.475Z,68.16
2023-02-14T22:26:43.056Z,68.19
2023-02-14T22:29:13.446Z,68.05
2023-02-14T22:31:44.356Z,68.38
2023-02-14T22:34:15.017Z,68.40
2023-02-14T22:36:44.908Z,68.61
2023-02-14T22:39:15.734Z,68.81
2023-02-14T22:41:44.698Z,68.63
2023-02-14T22:44:14.085Z,68.94
2023-02-14T22:46:42.821Z,68.50
2023-02-14T22:49:11.262Z,69.10
2023-02-14T22:51:41.410Z,68.85
2023-02-14T22:54:13.709Z,69.00
2023-02-14T22:56:43.713Z,68.88
2023-02-14T22:59:16.672Z,69.02
2023-02-14T23:01:45.432Z,68.97
2023-02-14T23:04:14.437Z,69.08
2023-02-14T23:06:42.991Z,68.87
2023-02-14T23:09:14.201Z,68.89
2023-02-14T23:11:44.023Z,68.84
2023-02-14T23:14:30.996Z,68.96
2023-02-14T23:17:17.225Z,68.85
2023-02-14T23:20:13.206Z,68.84
2023-02-14T23:22:42.268Z,68.82
2023-02-14T23:25:14.639Z,68.86
2023-02-14T23:27:45.737Z,69.07
2023-02-14T23:30:17.247Z,69.36
2023-02-14T23:32:49.254Z,69.35
2023-02-14T23:35:17.584Z,69.61
2023-02-14T23:37:45.945Z,69.83
2023-02-14T23:40:15.681Z,70.40
2023-02-14T23:42:43.989Z,70.81
2023-02-14T23:45:29.829Z,70.98
2023-02-14T23:48:02.596Z,70.88
2023-02-14T23:50:30.923Z,70.67
2023-02-14T23:52:59.745Z,70.87
2023-02-14T23:55:29.484Z,70.77
2023-02-14T23:57:57.836Z,70.67
